US-0074 weather

Henderson Airport
Henderson, Colorado, United States

Public forecast

Using degrees Fahrenheit for public forecast. Weather courtesy of forecast.io.

METAR (pilot weather report)

Closest report is Denver International Airport, 9.5 nm (17.6 km) ESE. Retrieved 2019/04/25 22:53 UTC (23 minutes ago):

KDEN 252253Z 11003KT 10SM FEW070 FEW220 16/M02 A3017 RMK AO2 SLP178 T01611017

TAF (pilot weather forecast)

Closest forecast is Denver International Airport, 9.5 nm (17.6 km) ESE. Retrieved 2019/04/25 18:24 UTC (5 hours ago):

TAF KDEN 251721Z 2518/2624 05010KT P6SM SCT060 FM260000 10007KT P6SM FEW070 SCT220 FM260400 16012KT P6SM FEW220 FM260900 20011KT P6SM SKC FM261400 24010KT P6SM SCT200 FM261900 27006KT P6SM SCT050 BKN220 PROB30 2621/2623 VRB12G25KT -TSRA BKN060CB